sensor_id;sensor_type;location;lat;lon;timestamp;pressure;altitude;pressure_sealevel;temperature;humidity
50103;BME280;35993;52.604;10.078;2023-08-06T00:02:05;100370.97;;;15.63;100.00
50103;BME280;35993;52.604;10.078;2023-08-06T00:04:30;100374.00;;;15.67;100.00
50103;BME280;35993;52.604;10.078;2023-08-06T00:06:56;100378.63;;;15.66;100.00
50103;BME280;35993;52.604;10.078;2023-08-06T00:09:21;100378.13;;;15.69;100.00
50103;BME280;35993;52.604;10.078;2023-08-06T00:11:47;100382.53;;;15.70;100.00
50103;BME280;35993;52.604;10.078;2023-08-06T00:14:13;100382.53;;;15.70;100.00
50103;BME280;35993;52.604;10.078;2023-08-06T00:16:43;100381.66;;;15.65;100.00
50103;BME280;35993;52.604;10.078;2023-08-06T00:19:09;100383.03;;;15.67;100.00
50103;BME280;35993;52.604;10.078;2023-08-06T00:21:34;100385.50;;;15.69;100.00
50103;BME280;35993;52.604;10.078;2023-08-06T00:24:00;100380.34;;;15.72;100.00
50103;BME280;35993;52.604;10.078;2023-08-06T00:26:25;100372.09;;;15.67;100.00
50103;BME280;35993;52.604;10.078;2023-08-06T00:28:51;100371.78;;;15.64;100.00
50103;BME280;35993;52.604;10.078;2023-08-06T00:31:17;100363.56;;;15.64;100.00
50103;BME280;35993;52.604;10.078;2023-08-06T00:33:42;100363.56;;;15.64;100.00
50103;BME280;35993;52.604;10.078;2023-08-06T00:36:08;100355.84;;;15.55;100.00
50103;BME280;35993;52.604;10.078;2023-08-06T00:38:34;100364.06;;;15.55;100.00
50103;BME280;35993;52.604;10.078;2023-08-06T00:40:59;100354.81;;;15.62;100.00
50103;BME280;35993;52.604;10.078;2023-08-06T00:43:25;100348.25;;;15.63;100.00
50103;BME280;35993;52.604;10.078;2023-08-06T00:45:50;100338.13;;;15.63;100.00
50103;BME280;35993;52.604;10.078;2023-08-06T00:48:16;100340.28;;;15.61;100.00
50103;BME280;35993;52.604;10.078;2023-08-06T00:50:42;100335.88;;;15.55;100.00
50103;BME280;35993;52.604;10.078;2023-08-06T00:53:08;100333.97;;;15.55;100.00
50103;BME280;35993;52.604;10.078;2023-08-06T00:55:34;100326.06;;;15.59;100.00
50103;BME280;35993;52.604;10.078;2023-08-06T00:58:00;100323.69;;;15.68;100.00
50103;BME280;35993;52.604;10.078;2023-08-06T01:00:26;100316.81;;;15.65;100.00
50103;BME280;35993;52.604;10.078;2023-08-06T01:02:53;100318.97;;;15.63;100.00
50103;BME280;35993;52.604;10.078;2023-08-06T01:05:20;100317.31;;;15.62;100.00
50103;BME280;35993;52.604;10.078;2023-08-06T01:10:51;100317.00;;;15.59;100.00
50103;BME280;35993;52.604;10.078;2023-08-06T01:13:43;100315.38;;;15.57;100.00
50103;BME280;35993;52.604;10.078;2023-08-06T01:16:14;100314.00;;;15.55;100.00
50103;BME280;35993;52.604;10.078;2023-08-06T01:18:40;100304.47;;;15.63;100.00
50103;BME280;35993;52.604;10.078;2023-08-06T01:21:08;100298.69;;;15.59;100.00
50103;BME280;35993;52.604;10.078;2023-08-06T01:23:34;100297.63;;;15.60;100.00
50103;BME280;35993;52.604;10.078;2023-08-06T01:26:44;100303.59;;;15.57;100.00
50103;BME280;35993;52.604;10.078;2023-08-06T01:29:12;100299.00;;;15.63;100.00
50103;BME280;35993;52.604;10.078;2023-08-06T01:31:43;100292.69;;;15.62;100.00
50103;BME280;35993;52.604;10.078;2023-08-06T01:34:21;100288.63;;;15.65;100.00
50103;BME280;35993;52.604;10.078;2023-08-06T01:36:48;100290.53;;;15.64;100.00
50103;BME280;35993;52.604;10.078;2023-08-06T01:39:14;100285.34;;;15.63;100.00
50103;BME280;35993;52.604;10.078;2023-08-06T01:41:40;100289.16;;;15.62;100.00
50103;BME280;35993;52.604;10.078;2023-08-06T01:44:05;100290.22;;;15.61;100.00
50103;BME280;35993;52.604;10.078;2023-08-06T01:46:31;100284.78;;;15.66;100.00
50103;BME280;35993;52.604;10.078;2023-08-06T01:48:56;100284.78;;;15.66;100.00
50103;BME280;35993;52.604;10.078;2023-08-06T01:51:22;100272.19;;;15.65;100.00
50103;BME280;35993;52.604;10.078;2023-08-06T01:53:50;100274.16;;;15.69;100.00
50103;BME280;35993;52.604;10.078;2023-08-06T01:56:17;100271.16;;;15.71;100.00
50103;BME280;35993;52.604;10.078;2023-08-06T01:58:44;100259.41;;;15.70;100.00
50103;BME280;35993;52.604;10.078;2023-08-06T02:01:09;100259.91;;;15.67;100.00
50103;BME280;35993;52.604;10.078;2023-08-06T02:03:36;100253.66;;;15.72;100.00
50103;BME280;35993;52.604;10.078;2023-08-06T02:06:02;100255.59;;;15.77;100.00
50103;BME280;35993;52.604;10.078;2023-08-06T02:08:27;100254.84;;;15.81;100.00
50103;BME280;35993;52.604;10.078;2023-08-06T02:10:53;100249.88;;;15.78;100.00
50103;BME280;35993;52.604;10.078;2023-08-06T02:13:19;100255.53;;;15.71;100.00
50103;BME280;35993;52.604;10.078;2023-08-06T02:15:45;100252.78;;;15.66;100.00
50103;BME280;35993;52.604;10.078;2023-08-06T02:18:13;100241.31;;;15.69;100.00
50103;BME280;35993;52.604;10.078;2023-08-06T02:20:40;100246.22;;;15.67;100.00
50103;BME280;35993;52.604;10.078;2023-08-06T02:23:06;100248.97;;;15.67;100.00
50103;BME280;35993;52.604;10.078;2023-08-06T02:25:32;100250.31;;;15.65;100.00
50103;BME280;35993;52.604;10.078;2023-08-06T02:27:59;100248.97;;;15.67;100.00
50103;BME280;35993;52.604;10.078;2023-08-06T02:30:24;100238.31;;;15.71;100.00
50103;BME280;35993;52.604;10.078;2023-08-06T02:32:50;100238.03;;;15.72;100.00
50103;BME280;35993;52.604;10.078;2023-08-06T02:35:15;100240.75;;;15.67;100.00
50103;BME280;35993;52.604;10.078;2023-08-06T02:37:41;100240.72;;;15.62;100.00
50103;BME280;35993;52.604;10.078;2023-08-06T02:40:07;100236.94;;;15.68;100.00
50103;BME280;35993;52.604;10.078;2023-08-06T02:42:32;100242.41;;;15.68;100.00
50103;BME280;35993;52.604;10.078;2023-08-06T02:44:58;100237.19;;;15.67;100.00
50103;BME280;35993;52.604;10.078;2023-08-06T02:47:24;100241.84;;;15.66;100.00
50103;BME280;35993;52.604;10.078;2023-08-06T02:49:49;100231.97;;;15.60;100.00
50103;BME280;35993;52.604;10.078;2023-08-06T02:52:15;100234.72;;;15.65;100.00
50103;BME280;35993;52.604;10.078;2023-08-06T02:54:42;100225.72;;;15.70;100.00
50103;BME280;35993;52.604;10.078;2023-08-06T02:57:08;100216.47;;;15.76;100.00
50103;BME280;35993;52.604;10.078;2023-08-06T02:59:34;100203.50;;;15.61;100.00
50103;BME280;35993;52.604;10.078;2023-08-06T03:02:07;100207.19;;;15.45;100.00
50103;BME280;35993;52.604;10.078;2023-08-06T03:05:07;100215.41;;;15.45;100.00
50103;BME280;35993;52.604;10.078;2023-08-06T03:07:37;100210.19;;;15.43;100.00
50103;BME280;35993;52.604;10.078;2023-08-06T03:10:14;100205.66;;;15.54;100.00
50103;BME280;35993;52.604;10.078;2023-08-06T03:12:41;100193.81;;;15.48;100.00
50103;BME280;35993;52.604;10.078;2023-08-06T03:15:08;100203.88;;;15.37;100.00
50103;BME280;35993;52.604;10.078;2023-08-06T03:17:34;100202.84;;;15.44;100.00
50103;BME280;35993;52.604;10.078;2023-08-06T03:20:02;100204.66;;;15.33;100.00
50103;BME280;35993;52.604;10.078;2023-08-06T03:22:28;100200.88;;;15.39;100.00
50103;BME280;35993;52.604;10.078;2023-08-06T03:24:54;100185.84;;;15.42;100.00
50103;BME280;35993;52.604;10.078;2023-08-06T03:27:22;100188.91;;;15.45;100.00
50103;BME280;35993;52.604;10.078;2023-08-06T03:29:50;100193.41;;;15.29;100.00
50103;BME280;35993;52.604;10.078;2023-08-06T03:32:16;100190.16;;;15.32;100.00
50103;BME280;35993;52.604;10.078;2023-08-06T03:34:42;100191.34;;;15.47;100.00
50103;BME280;35993;52.604;10.078;2023-08-06T03:37:08;100191.63;;;15.45;100.00
50103;BME280;35993;52.604;10.078;2023-08-06T03:39:34;100184.16;;;15.35;100.00
50103;BME280;35993;52.604;10.078;2023-08-06T03:42:00;100185.44;;;15.22;100.00
50103;BME280;35993;52.604;10.078;2023-08-06T03:44:26;100186.50;;;15.21;100.00
50103;BME280;35993;52.604;10.078;2023-08-06T03:46:53;100185.16;;;15.24;100.00
50103;BME280;35993;52.604;10.078;2023-08-06T03:49:19;100184.84;;;15.20;100.00
50103;BME280;35993;52.604;10.078;2023-08-06T03:51:45;100181.09;;;15.27;100.00
50103;BME280;35993;52.604;10.078;2023-08-06T03:54:12;100181.94;;;15.27;100.00
50103;BME280;35993;52.604;10.078;2023-08-06T03:56:37;100180.31;;;15.31;100.00
50103;BME280;35993;52.604;10.078;2023-08-06T03:59:03;100169.13;;;15.38;100.00
50103;BME280;35993;52.604;10.078;2023-08-06T04:01:28;100176.00;;;15.40;100.00
50103;BME280;35993;52.604;10.078;2023-08-06T04:03:54;100168.63;;;15.41;100.00
50103;BME280;35993;52.604;10.078;2023-08-06T04:06:19;100174.09;;;15.41;100.00
50103;BME280;35993;52.604;10.078;2023-08-06T04:08:45;100173.25;;;15.40;100.00
50103;BME280;35993;52.604;10.078;2023-08-06T04:11:10;100170.53;;;15.40;100.00
50103;BME280;35993;52.604;10.078;2023-08-06T04:13:44;100172.72;;;15.38;100.00
50103;BME280;35993;52.604;10.078;2023-08-06T04:16:09;100179.28;;;15.37;100.00
50103;BME280;35993;52.604;10.078;2023-08-06T04:18:35;100168.31;;;15.37;100.00
50103;BME280;35993;52.604;10.078;2023-08-06T04:21:02;100171.88;;;15.38;100.00
50103;BME280;35993;52.604;10.078;2023-08-06T04:23:27;100167.78;;;15.40;100.00
50103;BME280;35993;52.604;10.078;2023-08-06T04:25:58;100171.03;;;15.32;100.00
50103;BME280;35993;52.604;10.078;2023-08-06T04:28:26;100174.22;;;15.24;100.00
50103;BME280;35993;52.604;10.078;2023-08-06T04:30:52;100178.06;;;15.23;100.00
50103;BME280;35993;52.604;10.078;2023-08-06T04:33:20;100182.22;;;15.31;100.00
50103;BME280;35993;52.604;10.078;2023-08-06T04:35:46;100180.34;;;15.36;100.00
50103;BME280;35993;52.604;10.078;2023-08-06T04:38:11;100173.25;;;15.40;100.00
50103;BME280;35993;52.604;10.078;2023-08-06T04:40:37;100166.44;;;15.43;100.00
50103;BME280;35993;52.604;10.078;2023-08-06T04:43:03;100173.88;;;15.48;100.00
50103;BME280;35993;52.604;10.078;2023-08-06T04:45:32;100169.50;;;15.52;100.00
50103;BME280;35993;52.604;10.078;2023-08-06T04:47:57;100165.69;;;15.53;100.00
50103;BME280;35993;52.604;10.078;2023-08-06T04:50:23;100168.44;;;15.53;100.00
50103;BME280;35993;52.604;10.078;2023-08-06T04:52:48;100170.91;;;15.54;100.00
50103;BME280;35993;52.604;10.078;2023-08-06T04:55:13;100167.06;;;15.55;100.00
50103;BME280;35993;52.604;10.078;2023-08-06T04:57:39;100171.75;;;15.55;100.00
50103;BME280;35993;52.604;10.078;2023-08-06T05:00:05;100172.56;;;15.55;100.00
50103;BME280;35993;52.604;10.078;2023-08-06T05:02:31;100179.97;;;15.60;100.00
50103;BME280;35993;52.604;10.078;2023-08-06T05:04:58;100175.06;;;15.62;100.00
50103;BME280;35993;52.604;10.078;2023-08-06T05:07:23;100169.06;;;15.65;100.00
50103;BME280;35993;52.604;10.078;2023-08-06T05:09:49;100166.53;;;15.59;100.00
50103;BME280;35993;52.604;10.078;2023-08-06T05:12:14;100163.03;;;15.63;100.00
50103;BME280;35993;52.604;10.078;2023-08-06T05:14:40;100166.38;;;15.70;100.00
50103;BME280;35993;52.604;10.078;2023-08-06T05:17:06;100169.09;;;15.70;100.00
50103;BME280;35993;52.604;10.078;2023-08-06T05:19:31;100164.75;;;15.75;100.00
50103;BME280;35993;52.604;10.078;2023-08-06T05:21:57;100164.75;;;15.80;100.00
50103;BME280;35993;52.604;10.078;2023-08-06T05:24:22;100150.00;;;15.81;100.00
50103;BME280;35993;52.604;10.078;2023-08-06T05:26:48;100153.06;;;15.84;100.00
50103;BME280;35993;52.604;10.078;2023-08-06T05:29:14;100152.16;;;15.79;100.00
50103;BME280;35993;52.604;10.078;2023-08-06T05:31:39;100154.91;;;15.79;100.00
50103;BME280;35993;52.604;10.078;2023-08-06T05:34:05;100154.59;;;15.75;100.00
50103;BME280;35993;52.604;10.078;2023-08-06T05:36:31;100154.38;;;15.82;100.00
50103;BME280;35993;52.604;10.078;2023-08-06T05:38:56;100156.06;;;15.88;100.00
50103;BME280;35993;52.604;10.078;2023-08-06T05:41:22;100151.44;;;15.88;100.00
50103;BME280;35993;52.604;10.078;2023-08-06T05:43:47;100149.50;;;15.89;100.00
50103;BME280;35993;52.604;10.078;2023-08-06T05:46:13;100151.97;;;15.91;100.00
50103;BME280;35993;52.604;10.078;2023-08-06T05:48:38;100151.72;;;15.87;100.00
50103;BME280;35993;52.604;10.078;2023-08-06T05:51:04;100147.03;;;15.82;100.00
50103;BME280;35993;52.604;10.078;2023-08-06T05:53:29;100145.38;;;15.86;100.00
50103;BME280;35993;52.604;10.078;2023-08-06T05:55:55;100141.88;;;15.91;100.00
50103;BME280;35993;52.604;10.078;2023-08-06T05:58:21;100135.03;;;15.94;100.00
50103;BME280;35993;52.604;10.078;2023-08-06T06:00:46;100135.03;;;15.94;100.00
50103;BME280;35993;52.604;10.078;2023-08-06T06:03:12;100135.78;;;15.84;100.00
50103;BME280;35993;52.604;10.078;2023-08-06T06:05:38;100134.75;;;15.90;100.00
50103;BME280;35993;52.604;10.078;2023-08-06T06:08:06;100148.72;;;15.94;100.00
50103;BME280;35993;52.604;10.078;2023-08-06T06:10:32;100140.50;;;15.94;100.00
50103;BME280;35993;52.604;10.078;2023-08-06T06:12:57;100141.31;;;15.94;100.00
50103;BME280;35993;52.604;10.078;2023-08-06T06:15:23;100138.03;;;15.92;100.00
50103;BME280;35993;52.604;10.078;2023-08-06T06:17:48;100143.53;;;15.97;100.00
50103;BME280;35993;52.604;10.078;2023-08-06T06:20:14;100136.97;;;16.03;100.00
50103;BME280;35993;52.604;10.078;2023-08-06T06:22:40;100141.66;;;16.13;100.00
50103;BME280;35993;52.604;10.078;2023-08-06T06:25:06;100154.00;;;16.16;100.00
50103;BME280;35993;52.604;10.078;2023-08-06T06:27:31;100147.72;;;16.15;100.00
50103;BME280;35993;52.604;10.078;2023-08-06T06:29:57;100145.81;;;16.21;100.00
50103;BME280;35993;52.604;10.078;2023-08-06T06:32:22;100154.59;;;16.28;100.00
50103;BME280;35993;52.604;10.078;2023-08-06T06:34:48;100152.66;;;16.24;100.00
50103;BME280;35993;52.604;10.078;2023-08-06T06:37:13;100154.31;;;16.30;100.00
50103;BME280;35993;52.604;10.078;2023-08-06T06:39:39;100147.09;;;16.03;100.00
50103;BME280;35993;52.604;10.078;2023-08-06T06:42:05;100144.38;;;16.03;100.00
50103;BME280;35993;52.604;10.078;2023-08-06T06:44:36;100144.97;;;16.10;100.00
50103;BME280;35993;52.604;10.078;2023-08-06T06:47:02;100148.22;;;16.12;100.00
50103;BME280;35993;52.604;10.078;2023-08-06T06:49:27;100153.22;;;16.26;100.00
50103;BME280;35993;52.604;10.078;2023-08-06T06:51:53;100151.31;;;16.31;100.00
50103;BME280;35993;52.604;10.078;2023-08-06T06:54:18;100151.31;;;16.31;100.00
50103;BME280;35993;52.604;10.078;2023-08-06T06:56:44;100144.22;;;16.46;100.00
50103;BME280;35993;52.604;10.078;2023-08-06T06:59:09;100143.41;;;16.50;100.00
50103;BME280;35993;52.604;10.078;2023-08-06T07:01:35;100142.03;;;16.48;100.00
50103;BME280;35993;52.604;10.078;2023-08-06T07:04:00;100149.47;;;16.58;100.00
50103;BME280;35993;52.604;10.078;2023-08-06T07:06:30;100145.38;;;16.60;100.00
50103;BME280;35993;52.604;10.078;2023-08-06T07:08:56;100146.75;;;16.68;100.00
50103;BME280;35993;52.604;10.078;2023-08-06T07:11:21;100147.28;;;16.70;100.00
50103;BME280;35993;52.604;10.078;2023-08-06T07:13:49;100145.88;;;16.47;100.00
50103;BME280;35993;52.604;10.078;2023-08-06T07:16:15;100138.81;;;16.71;100.00
50103;BME280;35993;52.604;10.078;2023-08-06T07:18:40;100142.09;;;16.84;100.00
50103;BME280;35993;52.604;10.078;2023-08-06T07:21:06;100132.81;;;16.95;100.00
50103;BME280;35993;52.604;10.078;2023-08-06T07:23:32;100134.44;;;16.86;100.00
50103;BME280;35993;52.604;10.078;2023-08-06T07:25:57;100138.25;;;16.85;100.00
50103;BME280;35993;52.604;10.078;2023-08-06T07:28:23;100133.59;;;16.70;100.00
50103;BME280;35993;52.604;10.078;2023-08-06T07:30:48;100134.16;;;16.82;100.00
50103;BME280;35993;52.604;10.078;2023-08-06T07:33:14;100137.22;;;16.91;100.00
50103;BME280;35993;52.604;10.078;2023-08-06T07:35:39;100128.94;;;16.81;100.00
50103;BME280;35993;52.604;10.078;2023-08-06T07:38:05;100130.03;;;16.90;100.00
50103;BME280;35993;52.604;10.078;2023-08-06T07:40:31;100139.94;;;16.96;100.00
50103;BME280;35993;52.604;10.078;2023-08-06T07:42:56;100139.38;;;17.04;100.00
50103;BME280;35993;52.604;10.078;2023-08-06T07:45:23;100138.84;;;17.28;100.00
50103;BME280;35993;52.604;10.078;2023-08-06T07:47:49;100132.78;;;17.47;100.00
50103;BME280;35993;52.604;10.078;2023-08-06T07:50:14;100127.28;;;17.52;100.00
50103;BME280;35993;52.604;10.078;2023-08-06T07:52:40;100124.75;;;17.66;100.00
50103;BME280;35993;52.604;10.078;2023-08-06T07:55:06;100122.22;;;17.85;100.00
50103;BME280;35993;52.604;10.078;2023-08-06T07:57:32;100128.56;;;17.96;100.00
50103;BME280;35993;52.604;10.078;2023-08-06T07:59:57;100128.53;;;18.01;100.00
50103;BME280;35993;52.604;10.078;2023-08-06T08:02:23;100124.94;;;18.11;100.00
50103;BME280;35993;52.604;10.078;2023-08-06T08:04:48;100121.09;;;18.01;100.00
50103;BME280;35993;52.604;10.078;2023-08-06T08:07:14;100125.75;;;18.06;100.00
50103;BME280;35993;52.604;10.078;2023-08-06T08:09:40;100118.84;;;18.14;100.00
50103;BME280;35993;52.604;10.078;2023-08-06T08:12:06;100119.59;;;18.30;100.00
50103;BME280;35993;52.604;10.078;2023-08-06T08:14:31;100120.94;;;18.32;100.00
50103;BME280;35993;52.604;10.078;2023-08-06T08:17:04;100118.97;;;18.43;100.00
50103;BME280;35993;52.604;10.078;2023-08-06T08:19:34;100118.53;;;18.21;100.00
50103;BME280;35993;52.604;10.078;2023-08-06T08:21:59;100117.94;;;18.34;100.00
50103;BME280;35993;52.604;10.078;2023-08-06T08:24:25;100109.31;;;18.51;100.00
50103;BME280;35993;52.604;10.078;2023-08-06T08:26:51;100115.34;;;18.53;100.00
50103;BME280;35993;52.604;10.078;2023-08-06T08:29:17;100111.38;;;18.70;100.00
50103;BME280;35993;52.604;10.078;2023-08-06T08:31:42;100109.69;;;18.74;100.00
50103;BME280;35993;52.604;10.078;2023-08-06T08:34:09;100107.16;;;18.82;100.00
50103;BME280;35993;52.604;10.078;2023-08-06T08:36:35;100104.63;;;18.91;100.00
50103;BME280;35993;52.604;10.078;2023-08-06T08:39:00;100108.69;;;18.64;100.00
50103;BME280;35993;52.604;10.078;2023-08-06T08:41:33;100099.78;;;18.38;100.00
50103;BME280;35993;52.604;10.078;2023-08-06T08:43:59;100102.97;;;18.56;100.00
50103;BME280;35993;52.604;10.078;2023-08-06T08:46:30;100103.47;;;18.58;100.00
50103;BME280;35993;52.604;10.078;2023-08-06T08:48:59;100096.38;;;18.86;100.00
50103;BME280;35993;52.604;10.078;2023-08-06T08:51:27;100106.09;;;19.13;100.00
50103;BME280;35993;52.604;10.078;2023-08-06T08:53:53;100101.56;;;19.27;100.00
50103;BME280;35993;52.604;10.078;2023-08-06T08:56:23;100091.63;;;19.31;100.00
50103;BME280;35993;52.604;10.078;2023-08-06T08:58:49;100083.59;;;19.35;100.00
50103;BME280;35993;52.604;10.078;2023-08-06T09:01:15;100087.81;;;19.27;100.00
50103;BME280;35993;52.604;10.078;2023-08-06T09:03:43;100088.91;;;19.26;100.00
50103;BME280;35993;52.604;10.078;2023-08-06T09:06:10;100088.56;;;19.33;100.00
50103;BME280;35993;52.604;10.078;2023-08-06T09:09:01;100077.44;;;19.43;100.00
50103;BME280;35993;52.604;10.078;2023-08-06T09:11:29;100086.69;;;19.53;99.14
50103;BME280;35993;52.604;10.078;2023-08-06T09:14:04;100085.81;;;19.04;95.44
50103;BME280;35993;52.604;10.078;2023-08-06T09:16:34;100079.75;;;19.07;95.67
50103;BME280;35993;52.604;10.078;2023-08-06T09:19:13;100088.06;;;19.31;98.47
50103;BME280;35993;52.604;10.078;2023-08-06T09:21:42;100070.69;;;19.30;89.77
50103;BME280;35993;52.604;10.078;2023-08-06T09:24:12;100074.88;;;19.52;92.96
50103;BME280;35993;52.604;10.078;2023-08-06T09:26:39;100078.88;;;19.89;93.07
50103;BME280;35993;52.604;10.078;2023-08-06T09:29:05;100076.66;;;19.91;90.76
50103;BME280;35993;52.604;10.078;2023-08-06T09:31:45;100065.25;;;19.98;89.51
50103;BME280;35993;52.604;10.078;2023-08-06T09:34:14;100071.19;;;19.86;89.33
50103;BME280;35993;52.604;10.078;2023-08-06T09:36:42;100072.41;;;19.99;89.35
50103;BME280;35993;52.604;10.078;2023-08-06T09:39:15;100072.66;;;20.22;90.29
50103;BME280;35993;52.604;10.078;2023-08-06T09:41:42;100068.91;;;20.32;90.33
50103;BME280;35993;52.604;10.078;2023-08-06T09:44:19;100068.91;;;20.51;87.89
50103;BME280;35993;52.604;10.078;2023-08-06T09:46:49;100074.94;;;20.53;86.95
50103;BME280;35993;52.604;10.078;2023-08-06T09:49:15;100076.38;;;20.50;86.50
50103;BME280;35993;52.604;10.078;2023-08-06T09:51:41;100066.78;;;20.28;84.13
50103;BME280;35993;52.604;10.078;2023-08-06T09:54:07;100073.47;;;20.41;84.96
50103;BME280;35993;52.604;10.078;2023-08-06T09:56:34;100068.09;;;20.50;83.72
50103;BME280;35993;52.604;10.078;2023-08-06T09:59:05;100060.25;;;20.76;84.57
50103;BME280;35993;52.604;10.078;2023-08-06T10:01:35;100041.97;;;20.81;79.34
50103;BME280;35993;52.604;10.078;2023-08-06T10:04:02;100055.25;;;20.78;82.25
50103;BME280;35993;52.604;10.078;2023-08-06T10:06:28;100052.41;;;20.84;80.92
50103;BME280;35993;52.604;10.078;2023-08-06T10:08:54;100052.06;;;21.18;80.41
50103;BME280;35993;52.604;10.078;2023-08-06T10:11:21;100038.38;;;21.27;75.23
50103;BME280;35993;52.604;10.078;2023-08-06T10:13:47;100020.19;;;21.40;72.76
50103;BME280;35993;52.604;10.078;2023-08-06T10:16:15;100029.38;;;21.49;73.63
50103;BME280;35993;52.604;10.078;2023-08-06T10:18:41;100033.38;;;21.43;75.30
50103;BME280;35993;52.604;10.078;2023-08-06T10:21:08;100040.16;;;21.65;76.37
50103;BME280;35993;52.604;10.078;2023-08-06T10:23:36;100038.50;;;21.64;75.93
50103;BME280;35993;52.604;10.078;2023-08-06T10:26:04;100022.53;;;21.47;74.77
50103;BME280;35993;52.604;10.078;2023-08-06T10:28:39;100031.06;;;21.64;74.93
50103;BME280;35993;52.604;10.078;2023-08-06T10:31:05;100017.84;;;21.47;72.46
50103;BME280;35993;52.604;10.078;2023-08-06T10:33:45;100007.72;;;21.28;71.22
50103;BME280;35993;52.604;10.078;2023-08-06T10:36:12;100021.41;;;21.48;72.86
50103;BME280;35993;52.604;10.078;2023-08-06T10:38:47;100008.75;;;21.60;71.86
50103;BME280;35993;52.604;10.078;2023-08-06T10:41:36;100002.22;;;21.56;71.14
50103;BME280;35993;52.604;10.078;2023-08-06T10:44:11;100015.19;;;21.70;73.04
50103;BME280;35993;52.604;10.078;2023-08-06T10:46:37;100009.94;;;21.96;74.25
50103;BME280;35993;52.604;10.078;2023-08-06T10:49:04;100000.03;;;22.18;71.21
50103;BME280;35993;52.604;10.078;2023-08-06T10:51:29;100000.09;;;22.40;69.78
50103;BME280;35993;52.604;10.078;2023-08-06T10:53:55;99991.06;;;21.98;68.13
50103;BME280;35993;52.604;10.078;2023-08-06T10:56:24;99990.53;;;21.45;70.00
50103;BME280;35993;52.604;10.078;2023-08-06T10:58:56;99982.34;;;20.99;69.85
50103;BME280;35993;52.604;10.078;2023-08-06T11:01:23;99986.97;;;21.17;70.44
50103;BME280;35993;52.604;10.078;2023-08-06T11:03:51;99987.47;;;21.61;68.97
50103;BME280;35993;52.604;10.078;2023-08-06T11:06:22;99972.50;;;21.76;68.27
50103;BME280;35993;52.604;10.078;2023-08-06T11:08:50;99975.81;;;22.01;68.55
50103;BME280;35993;52.604;10.078;2023-08-06T11:11:16;99979.16;;;21.75;68.76
50103;BME280;35993;52.604;10.078;2023-08-06T11:13:46;99978.03;;;21.48;69.26
50103;BME280;35993;52.604;10.078;2023-08-06T11:16:13;99973.63;;;21.75;69.32
50103;BME280;35993;52.604;10.078;2023-08-06T11:18:40;99964.44;;;21.66;67.51
50103;BME280;35993;52.604;10.078;2023-08-06T11:21:05;99973.06;;;21.64;68.30
50103;BME280;35993;52.604;10.078;2023-08-06T11:23:34;99961.44;;;21.90;67.73
50103;BME280;35993;52.604;10.078;2023-08-06T11:26:00;99955.91;;;21.90;66.67
50103;BME280;35993;52.604;10.078;2023-08-06T11:28:25;99964.75;;;22.01;66.98
50103;BME280;35993;52.604;10.078;2023-08-06T11:30:51;99955.53;;;22.05;66.18
50103;BME280;35993;52.604;10.078;2023-08-06T11:33:24;99965.44;;;21.84;68.82
50103;BME280;35993;52.604;10.078;2023-08-06T11:35:52;99964.03;;;21.58;68.49
50103;BME280;35993;52.604;10.078;2023-08-06T11:38:19;99964.13;;;21.39;69.21
50103;BME280;35993;52.604;10.078;2023-08-06T11:40:45;99952.72;;;21.46;67.84
50103;BME280;35993;52.604;10.078;2023-08-06T11:43:12;99940.22;;;21.49;66.75
50103;BME280;35993;52.604;10.078;2023-08-06T11:45:38;99946.31;;;21.73;67.02
50103;BME280;35993;52.604;10.078;2023-08-06T11:48:04;99947.97;;;22.11;66.80
50103;BME280;35993;52.604;10.078;2023-08-06T11:50:30;99944.63;;;22.23;65.38
50103;BME280;35993;52.604;10.078;2023-08-06T11:52:57;99946.94;;;22.07;66.04
50103;BME280;35993;52.604;10.078;2023-08-06T11:55:24;99941.72;;;22.05;66.80
50103;BME280;35993;52.604;10.078;2023-08-06T11:57:50;99935.69;;;22.03;65.68
50103;BME280;35993;52.604;10.078;2023-08-06T12:00:16;99939.66;;;21.88;66.17
50103;BME280;35993;52.604;10.078;2023-08-06T12:02:45;99936.16;;;21.83;66.19
50103;BME280;35993;52.604;10.078;2023-08-06T12:05:14;99937.69;;;21.89;67.58
50103;BME280;35993;52.604;10.078;2023-08-06T12:07:42;99935.69;;;21.81;67.43
50103;BME280;35993;52.604;10.078;2023-08-06T12:10:09;99930.84;;;21.86;66.83
50103;BME280;35993;52.604;10.078;2023-08-06T12:12:34;99932.63;;;22.05;66.76
50103;BME280;35993;52.604;10.078;2023-08-06T12:15:01;99936.13;;;22.19;67.30
50103;BME280;35993;52.604;10.078;2023-08-06T12:17:26;99924.69;;;22.12;66.15
50103;BME280;35993;52.604;10.078;2023-08-06T12:19:52;99920.53;;;22.01;64.30
50103;BME280;35993;52.604;10.078;2023-08-06T12:22:18;99920.41;;;22.29;64.93
50103;BME280;35993;52.604;10.078;2023-08-06T12:24:44;99896.94;;;22.17;63.22
50103;BME280;35993;52.604;10.078;2023-08-06T12:27:11;99916.72;;;22.10;64.85
50103;BME280;35993;52.604;10.078;2023-08-06T12:29:40;99909.00;;;21.99;64.93
50103;BME280;35993;52.604;10.078;2023-08-06T12:32:06;99917.41;;;21.93;65.84
50103;BME280;35993;52.604;10.078;2023-08-06T12:34:31;99916.91;;;21.91;66.09
50103;BME280;35993;52.604;10.078;2023-08-06T12:36:57;99911.25;;;21.97;66.17